06D weather

Rolla Municipal Airport
Rolla, North Dakota, United States

Public forecast

Using degrees Fahrenheit for public forecast. Weather courtesy of forecast.io.

Current aviation weather report (METAR) for Rolla Municipal Airport

Retrieved 2019/11/17 19:35 UTC (0 seconds ago):

K06D 171935Z AUTO 23009KT 10SM OVC008 M00/M02 A2983 RMK AO2

Closest aviation forecast (TAF) to Rolla Municipal Airport

Closest forecast is Devils Lake Regional Airport, 54.2 nm (100.4 km) SSE. Retrieved 2019/11/17 18:45 UTC (32 minutes ago):

TAF KDVL 171742Z 1718/1818 31012KT P6SM OVC009 FM171900 28008KT P6SM BKN015 FM172300 23007KT P6SM BKN050 FM180800 18009KT P6SM OVC030 FM181100 22008KT P6SM BKN015